Time;durP1;ratioP1;P1;durP2;ratioP2;P2;SDS_P1;SDS_P2;PMS_P1;PMS_P2;Temp;Humidity;BMP_temperature;BMP_pressure;BME280_temperature;BME280_humidity;BME280_pressure;Samples;Min_cycle;Max_cycle;Signal;HPM_P1;HPM_P2
2022/04/08 00:01:44;;;;;;;9.50;2.75;;;;;;;10.14;42.79;99025.78;4032121;29;20127;-60
2022/04/08 00:03:47;;;;;;;5.50;1.58;;;;;;;10.12;42.91;99027.53;4029740;29;20089;-60
2022/04/08 00:05:52;;;;;;;7.68;2.00;;;;;;;10.00;43.72;99030.19;4042503;29;20046;-60
2022/04/08 00:07:54;;;;;;;3.97;1.25;;;;;;;9.96;43.22;99040.59;4027489;29;20127;-60
2022/04/08 00:09:57;;;;;;;7.20;2.03;;;;;;;9.95;43.69;99033.69;4029344;29;22089;-60
2022/04/08 00:12:00;;;;;;;4.95;1.60;;;;;;;10.07;42.87;99029.28;4031375;29;20044;-60
2022/04/08 00:14:05;;;;;;;6.43;1.77;;;;;;;10.01;43.09;99029.34;4031222;29;20045;-60
2022/04/08 00:16:09;;;;;;;7.13;1.95;;;;;;;9.94;43.80;99042.34;4031262;29;20519;-60
2022/04/08 00:18:12;;;;;;;3.70;1.35;;;;;;;10.03;43.37;99038.84;4032337;29;20089;-60
2022/04/08 00:20:15;;;;;;;7.10;1.60;;;;;;;9.94;43.30;99037.16;4042980;29;20123;-60
2022/04/08 00:22:20;;;;;;;11.43;3.20;;;;;;;9.96;43.18;99031.97;4028197;29;20580;-60
2022/04/08 00:24:23;;;;;;;7.32;2.55;;;;;;;10.04;43.43;99040.53;4029815;29;20059;-60
2022/04/08 00:26:26;;;;;;;10.00;2.25;;;;;;;9.89;43.81;99043.25;4029326;29;20124;-60
2022/04/08 00:28:29;;;;;;;9.23;1.70;;;;;;;9.96;43.47;99034.56;4032534;29;20049;-60
2022/04/08 00:30:33;;;;;;;6.10;1.50;;;;;;;9.90;43.40;99050.16;4031460;29;20505;-60
2022/04/08 00:32:36;;;;;;;9.93;2.10;;;;;;;9.84;43.54;99056.25;4032940;29;20037;-60
2022/04/08 00:34:39;;;;;;;11.00;2.35;;;;;;;9.81;43.60;99051.06;4031561;29;20033;-60
2022/04/08 00:36:42;;;;;;;4.97;1.55;;;;;;;9.84;43.86;99055.38;4029444;29;20484;-60
2022/04/08 00:38:44;;;;;;;4.65;1.63;;;;;;;9.87;43.69;99055.38;4033951;29;20488;-59
2022/04/08 00:40:47;;;;;;;9.27;1.48;;;;;;;9.78;44.06;99075.31;4029747;29;20571;-60
2022/04/08 00:42:50;;;;;;;7.50;1.90;;;;;;;9.74;44.22;99068.41;4024094;29;20133;-60
2022/04/08 00:44:53;;;;;;;6.22;1.77;;;;;;;9.73;44.36;99064.09;4030473;29;20128;-59
2022/04/08 00:46:58;;;;;;;9.65;1.95;;;;;;;9.70;44.42;99084.88;4031121;29;20137;-59
2022/04/08 00:49:00;;;;;;;5.63;1.42;;;;;;;9.71;44.16;99088.31;4034863;29;20058;-59
2022/04/08 00:51:04;;;;;;;8.73;2.13;;;;;;;9.64;44.62;99087.50;4024685;29;20048;-60
2022/04/08 00:53:08;;;;;;;8.77;1.70;;;;;;;9.72;44.54;99088.31;4036014;29;20045;-60
2022/04/08 00:55:12;;;;;;;10.13;1.90;;;;;;;9.84;43.77;99089.13;4026566;29;20076;-60
2022/04/08 00:57:15;;;;;;;6.53;2.17;;;;;;;9.71;44.58;99086.59;4032622;29;20141;-59
2022/04/08 00:59:18;;;;;;;7.40;1.40;;;;;;;9.67;44.60;99086.63;4026319;29;20041;-60
2022/04/08 01:01:23;;;;;;;7.30;1.58;;;;;;;9.65;45.00;99090.94;4027800;29;20065;-59
2022/04/08 01:03:27;;;;;;;9.93;1.83;;;;;;;9.59;44.90;99097.91;4028348;29;20072;-59
2022/04/08 01:05:31;;;;;;;5.72;1.70;;;;;;;9.62;45.09;99097.00;4032835;29;20045;-59
2022/04/08 01:07:34;;;;;;;7.53;2.47;;;;;;;9.52;45.19;99100.50;4028282;29;20561;-60
2022/04/08 01:09:37;;;;;;;7.72;1.63;;;;;;;9.46;45.24;99097.94;4034173;29;20128;-60
2022/04/08 01:11:42;;;;;;;5.55;1.45;;;;;;;9.48;45.51;99114.38;4033637;29;20054;-60
2022/04/08 01:13:44;;;;;;;6.90;1.75;;;;;;;9.44;45.32;99109.16;4047741;29;20046;-60
2022/04/08 01:15:47;;;;;;;7.25;1.98;;;;;;;9.38;45.84;99119.56;4032381;29;20041;-60
2022/04/08 01:17:50;;;;;;;6.90;2.10;;;;;;;9.34;45.94;99117.00;4029388;29;20068;-59
2022/04/08 01:19:55;;;;;;;9.50;2.15;;;;;;;9.38;45.91;99119.56;4030141;29;20037;-59
2022/04/08 01:21:59;;;;;;;9.55;2.00;;;;;;;9.37;46.22;99120.44;4029542;29;20073;-60
2022/04/08 01:24:04;;;;;;;7.68;1.80;;;;;;;9.39;45.99;99133.41;4032538;29;20041;-60
2022/04/08 01:26:09;;;;;;;6.90;2.38;;;;;;;9.34;46.39;99129.97;4033016;29;20041;-59
2022/04/08 01:28:12;;;;;;;7.93;1.98;;;;;;;9.36;46.33;99141.19;4026088;29;20037;-59
2022/04/08 01:30:16;;;;;;;6.57;2.17;;;;;;;9.33;46.27;99136.88;4030011;29;20128;-59
2022/04/08 01:32:19;;;;;;;7.40;2.00;;;;;;;9.33;46.33;99147.25;4032302;29;20040;-60
2022/04/08 01:34:22;;;;;;;10.63;2.63;;;;;;;9.32;46.38;99142.94;4035924;29;20309;-60
2022/04/08 01:36:25;;;;;;;7.68;2.00;;;;;;;9.34;46.29;99146.38;4027527;29;20045;-60
2022/04/08 01:38:27;;;;;;;4.68;1.85;;;;;;;9.30;46.82;99147.28;4026482;29;20098;-60
2022/04/08 01:40:30;;;;;;;11.75;2.38;;;;;;;9.32;46.60;99148.13;4036669;29;20124;-60
2022/04/08 01:42:35;;;;;;;9.65;2.22;;;;;;;9.33;46.71;99152.44;4027871;29;20045;-60
2022/04/08 01:44:38;;;;;;;9.52;1.90;;;;;;;9.28;46.68;99151.59;4027503;29;20510;-60
2022/04/08 01:46:41;;;;;;;8.90;1.52;;;;;;;9.22;46.95;99154.19;4027858;29;20041;-60
2022/04/08 01:48:44;;;;;;;7.10;2.15;;;;;;;9.19;47.37;99161.97;4030454;29;20042;-59
2022/04/08 01:50:47;;;;;;;9.20;2.38;;;;;;;9.16;47.24;99160.25;4025256;29;20046;-60
2022/04/08 01:52:50;;;;;;;6.05;1.42;;;;;;;9.15;47.65;99170.63;4027842;29;20068;-59
2022/04/08 01:54:53;;;;;;;11.35;1.98;;;;;;;9.16;47.42;99172.34;4031280;29;20041;-59
2022/04/08 01:56:56;;;;;;;6.25;1.67;;;;;;;9.11;47.63;99176.66;4028682;29;20459;-59
2022/04/08 01:59:00;;;;;;;6.05;1.90;;;;;;;9.07;47.89;99186.19;4032902;29;20045;-60
2022/04/08 02:01:04;;;;;;;8.55;2.85;;;;;;;9.08;47.97;99186.19;4030476;29;20046;-60
2022/04/08 02:03:09;;;;;;;9.73;2.08;;;;;;;9.12;47.89;99188.78;4025213;29;20045;-60
2022/04/08 02:05:11;;;;;;;12.95;2.85;;;;;;;9.08;48.05;99198.25;4029817;29;20048;-60
2022/04/08 02:07:14;;;;;;;9.48;2.15;;;;;;;9.08;47.95;99193.97;4033016;29;20072;-60
2022/04/08 02:09:18;;;;;;;9.60;1.90;;;;;;;8.99;48.17;99195.69;4021369;29;20046;-60
2022/04/08 02:11:21;;;;;;;11.40;2.78;;;;;;;8.97;48.37;99200.00;4032334;29;20211;-60
2022/04/08 02:13:24;;;;;;;9.00;2.38;;;;;;;8.97;48.58;99200.88;4032919;29;20120;-60
2022/04/08 02:15:33;;;;;;;11.88;2.58;;;;;;;8.92;48.63;99207.75;4029520;29;20135;-59
2022/04/08 02:17:36;;;;;;;6.22;2.03;;;;;;;8.94;48.59;99203.47;4015928;29;20038;-60
2022/04/08 02:19:38;;;;;;;10.05;2.17;;;;;;;9.00;48.74;99210.38;4032465;29;20065;-60
2022/04/08 02:21:42;;;;;;;9.98;2.10;;;;;;;8.93;48.50;99214.69;4030295;29;20505;-60
2022/04/08 02:23:45;;;;;;;9.57;2.17;;;;;;;8.95;48.89;99212.97;4033254;29;20060;-60
2022/04/08 02:25:48;;;;;;;10.13;2.58;;;;;;;8.96;48.89;99222.47;4032554;29;20326;-60
2022/04/08 02:27:51;;;;;;;11.55;2.45;;;;;;;8.93;49.12;99226.78;4034129;29;20052;-60
2022/04/08 02:29:53;;;;;;;8.20;2.65;;;;;;;8.92;49.19;99225.91;4033894;29;20388;-61
2022/04/08 02:31:58;;;;;;;9.18;1.95;;;;;;;8.93;48.95;99224.19;4029821;29;20044;-60
2022/04/08 02:34:01;;;;;;;7.93;2.25;;;;;;;8.88;49.12;99234.56;4033014;29;20052;-60
2022/04/08 02:36:05;;;;;;;12.43;2.30;;;;;;;8.85;49.23;99235.41;4033407;29;20516;-60
2022/04/08 02:38:09;;;;;;;9.95;2.47;;;;;;;8.95;49.07;99240.59;4031440;29;20041;-60
2022/04/08 02:40:13;;;;;;;12.25;1.90;;;;;;;8.88;49.25;99242.34;4033049;29;20389;-60
2022/04/08 02:42:16;;;;;;;9.63;2.25;;;;;;;8.87;49.15;99238.00;4031171;29;20135;-60
2022/04/08 02:44:18;;;;;;;8.35;2.10;;;;;;;8.85;49.32;99234.56;4026957;29;20093;-60
2022/04/08 02:46:21;;;;;;;11.90;3.25;;;;;;;8.80;49.56;99237.13;4032934;29;20045;-61
2022/04/08 02:48:26;;;;;;;6.53;2.17;;;;;;;8.74;49.96;99242.31;4031166;29;20044;-61
2022/04/08 02:50:28;;;;;;;9.05;1.75;;;;;;;8.74;50.08;99245.75;4030410;29;20053;-61
2022/04/08 02:52:31;;;;;;;6.68;1.70;;;;;;;8.71;50.36;99243.16;4033089;29;20135;-61
2022/04/08 02:54:35;;;;;;;9.90;2.05;;;;;;;8.70;50.74;99246.63;4034105;29;20033;-61
2022/04/08 02:56:41;;;;;;;12.00;2.25;;;;;;;8.66;50.84;99251.78;4027360;29;20045;-61
2022/04/08 02:58:43;;;;;;;9.48;2.15;;;;;;;8.68;50.86;99248.34;4031791;29;20115;-60
2022/04/08 03:00:46;;;;;;;12.60;2.88;;;;;;;8.90;50.44;99244.03;4029999;29;20041;-61
2022/04/08 03:02:49;;;;;;;9.73;2.80;;;;;;;8.86;50.80;99249.22;4034113;29;20053;-61
2022/04/08 03:04:54;;;;;;;9.07;2.00;;;;;;;8.88;50.62;99252.72;4032545;29;20123;-60
2022/04/08 03:06:58;;;;;;;10.32;3.05;;;;;;;8.88;50.54;99250.13;4031926;29;20041;-60
2022/04/08 03:09:01;;;;;;;9.70;2.05;;;;;;;8.74;50.75;99250.06;4031051;29;20072;-60
2022/04/08 03:11:04;;;;;;;10.10;2.28;;;;;;;8.77;50.79;99260.44;4029999;29;20056;-60
2022/04/08 03:13:07;;;;;;;10.38;2.20;;;;;;;8.69;51.59;99275.97;4034255;29;20037;-60
2022/04/08 03:15:11;;;;;;;8.88;2.40;;;;;;;8.73;51.07;99259.59;4032616;29;20049;-60
2022/04/08 03:17:14;;;;;;;12.48;2.85;;;;;;;8.81;51.07;99259.59;4031886;29;20033;-60
2022/04/08 03:19:18;;;;;;;9.65;2.10;;;;;;;8.81;51.20;99272.56;4033614;29;20465;-61
2022/04/08 03:21:22;;;;;;;8.40;1.90;;;;;;;8.88;50.91;99279.47;4028781;29;20037;-61
2022/04/08 03:23:25;;;;;;;9.98;2.97;;;;;;;8.94;50.76;99285.56;4026524;29;20037;-61
2022/04/08 03:25:28;;;;;;;10.43;2.17;;;;;;;8.89;50.96;99280.34;4023647;29;20583;-60
2022/04/08 03:27:30;;;;;;;8.77;2.03;;;;;;;8.97;51.04;99273.44;4028463;29;20065;-60
2022/04/08 03:29:33;;;;;;;9.13;2.83;;;;;;;8.76;51.42;99283.75;4030999;29;20152;-60
2022/04/08 03:31:36;;;;;;;9.73;2.50;;;;;;;8.68;51.71;99281.16;4031282;29;20041;-60
2022/04/08 03:33:39;;;;;;;7.90;2.28;;;;;;;8.72;51.48;99278.56;4030974;29;20515;-60
2022/04/08 03:35:43;;;;;;;10.38;2.50;;;;;;;8.71;51.71;99279.44;4034215;29;20053;-60
2022/04/08 03:37:47;;;;;;;14.52;3.83;;;;;;;8.76;51.83;99279.47;4027133;29;20041;-60
2022/04/08 03:39:50;;;;;;;6.68;2.03;;;;;;;8.72;51.77;99283.75;4033456;29;20041;-61
2022/04/08 03:41:53;;;;;;;7.95;2.50;;;;;;;8.79;51.63;99276.88;4032031;29;20503;-60
2022/04/08 03:43:56;;;;;;;12.50;2.10;;;;;;;8.80;51.66;99276.00;4030056;29;20125;-60
2022/04/08 03:45:59;;;;;;;11.77;2.47;;;;;;;8.73;51.42;99274.25;4031089;29;20068;-60
2022/04/08 03:48:02;;;;;;;13.10;2.75;;;;;;;8.74;51.52;99279.44;4027749;29;20036;-60
2022/04/08 03:50:06;;;;;;;10.50;2.10;;;;;;;8.72;51.35;99294.13;4035534;29;20085;-60
2022/04/08 03:52:09;;;;;;;13.05;2.50;;;;;;;8.68;51.34;99278.56;4031716;29;20138;-60
2022/04/08 03:54:14;;;;;;;10.52;2.17;;;;;;;8.70;51.10;99282.00;4030107;29;20579;-61
2022/04/08 03:56:17;;;;;;;8.23;2.33;;;;;;;8.61;51.48;99290.63;4031523;29;20525;-60
2022/04/08 03:58:20;;;;;;;8.35;2.03;;;;;;;8.62;51.76;99291.50;4027484;29;20043;-60
2022/04/08 04:00:23;;;;;;;9.52;3.00;;;;;;;8.54;51.76;99283.69;4031520;29;20037;-60
2022/04/08 04:02:26;;;;;;;10.95;2.28;;;;;;;8.49;51.66;99288.88;4025293;29;20089;-60
2022/04/08 04:04:29;;;;;;;7.18;1.92;;;;;;;8.57;52.06;99288.88;4031296;29;20412;-60
2022/04/08 04:06:32;;;;;;;11.00;2.30;;;;;;;8.62;52.24;99286.34;4014185;29;20112;-60
2022/04/08 04:08:34;;;;;;;12.90;2.42;;;;;;;8.71;51.96;99275.97;4027164;29;20376;-60
2022/04/08 04:10:39;;;;;;;5.38;2.05;;;;;;;8.62;51.95;99282.00;4021629;29;20049;-60
2022/04/08 04:12:42;;;;;;;10.57;2.38;;;;;;;8.56;52.63;99287.16;4021558;29;20034;-60
2022/04/08 04:14:45;;;;;;;10.87;2.50;;;;;;;8.58;52.42;99284.59;4027901;29;20144;-60
2022/04/08 04:16:49;;;;;;;8.40;2.05;;;;;;;8.54;52.86;99281.09;4021449;29;20115;-60
2022/04/08 04:18:51;;;;;;;9.75;2.47;;;;;;;8.54;52.96;99283.69;4033227;29;20049;-60
2022/04/08 04:20:54;;;;;;;13.48;2.22;;;;;;;8.56;52.88;99285.44;4031603;29;20112;-60
2022/04/08 04:22:57;;;;;;;17.60;2.35;;;;;;;8.55;53.04;99280.25;4032602;29;20033;-60
2022/04/08 04:25:00;;;;;;;10.57;2.40;;;;;;;8.56;52.91;99282.84;4036666;29;20051;-60
2022/04/08 04:27:05;;;;;;;9.57;2.10;;;;;;;8.50;53.14;99287.16;4025758;29;20037;-60
2022/04/08 04:29:08;;;;;;;;;;;;;;;8.34;53.97;99291.38;4023640;29;20508;-60
2022/04/08 04:31:11;;;;;;;10.98;2.15;;;;;;;8.43;53.99;99290.56;4022478;29;20008;-60
2022/04/08 04:33:14;;;;;;;13.05;2.22;;;;;;;8.46;53.80;99293.19;4033717;29;20042;-60
2022/04/08 04:35:17;;;;;;;10.45;3.05;;;;;;;8.43;54.16;99295.72;4033943;29;20065;-60
2022/04/08 04:37:20;;;;;;;10.30;2.13;;;;;;;8.36;54.66;99289.66;4020097;29;20073;-60
2022/04/08 04:39:22;;;;;;;14.23;2.92;;;;;;;8.35;54.66;99293.97;4025100;29;20041;-60
2022/04/08 04:41:25;;;;;;;11.82;2.17;;;;;;;8.37;54.69;99297.41;4023300;29;20042;-60
2022/04/08 04:43:30;;;;;;;9.57;1.98;;;;;;;8.33;54.64;99294.81;4023974;29;20388;-60
2022/04/08 04:45:34;;;;;;;10.35;2.35;;;;;;;8.37;54.75;99299.16;4026775;29;20045;-60
2022/04/08 04:47:38;;;;;;;9.60;2.15;;;;;;;8.35;55.08;99293.97;4022650;29;20137;-60
2022/04/08 04:49:40;;;;;;;13.10;3.22;;;;;;;8.37;54.43;99286.22;4038133;29;20128;-60
2022/04/08 04:51:43;;;;;;;9.18;2.35;;;;;;;8.30;54.90;99293.06;4021927;29;20041;-60
2022/04/08 04:53:46;;;;;;;11.15;2.17;;;;;;;8.28;55.08;99302.56;4022499;29;20042;-60
2022/04/08 04:55:49;;;;;;;12.60;3.10;;;;;;;8.24;55.06;99298.22;4028185;29;20044;-60
2022/04/08 04:57:52;;;;;;;11.93;3.03;;;;;;;8.30;55.01;99300.84;4032266;29;20056;-60
2022/04/08 04:59:56;;;;;;;13.60;2.97;;;;;;;8.28;54.84;99302.56;4036603;29;20519;-60
2022/04/08 05:01:59;;;;;;;11.32;2.53;;;;;;;8.21;55.14;99301.66;4037184;29;20074;-60
2022/04/08 05:04:02;;;;;;;9.00;2.30;;;;;;;8.31;54.97;99312.06;4045704;29;20045;-60
2022/04/08 05:06:05;;;;;;;21.08;3.05;;;;;;;8.34;54.88;99302.59;4041039;29;20096;-60
2022/04/08 05:08:08;;;;;;;15.20;3.15;;;;;;;8.35;55.04;99308.63;4038525;29;20048;-60
2022/04/08 05:10:11;;;;;;;16.42;3.45;;;;;;;8.36;55.20;99307.78;4038882;29;20390;-60
2022/04/08 05:12:14;;;;;;;19.67;3.45;;;;;;;8.31;55.49;99299.09;4032575;29;20077;-60
2022/04/08 05:14:17;;;;;;;14.88;2.78;;;;;;;8.33;55.08;99300.84;4032381;29;20444;-59
2022/04/08 05:16:22;;;;;;;10.43;2.28;;;;;;;8.43;55.70;99303.50;4034391;29;20129;-60
2022/04/08 05:18:25;;;;;;;14.57;3.17;;;;;;;8.43;55.29;99309.53;4033844;29;20399;-60
2022/04/08 05:20:28;;;;;;;14.77;2.88;;;;;;;8.42;55.41;99300.03;4038224;29;20028;-60
2022/04/08 05:22:30;;;;;;;10.27;2.70;;;;;;;8.43;55.31;99309.53;4034055;29;20083;-60
2022/04/08 05:24:33;;;;;;;9.75;2.60;;;;;;;8.39;55.65;99306.03;4031280;29;20127;-59
2022/04/08 05:26:36;;;;;;;10.15;2.65;;;;;;;8.28;56.01;99297.38;4041073;29;20132;-59
2022/04/08 05:28:39;;;;;;;14.13;2.63;;;;;;;8.31;56.42;99292.22;4059896;29;20040;-59
2022/04/08 05:30:42;;;;;;;11.77;2.60;;;;;;;8.39;55.85;99311.22;4036500;29;20068;-60
2022/04/08 05:32:52;;;;;;;9.68;2.70;;;;;;;8.41;56.12;99307.78;4036927;29;20036;-60
2022/04/08 05:34:55;;;;;;;11.25;2.85;;;;;;;8.38;56.09;99309.50;4039412;29;20596;-60
2022/04/08 05:37:01;;;;;;;13.23;3.17;;;;;;;8.36;55.94;99308.63;4039817;29;20566;-59
2022/04/08 05:39:04;;;;;;;11.48;2.67;;;;;;;8.37;56.48;99312.97;4041412;29;20132;-60
2022/04/08 05:41:07;;;;;;;11.32;3.78;;;;;;;8.38;55.91;99304.34;4030425;29;20041;-59
2022/04/08 05:43:10;;;;;;;13.68;2.63;;;;;;;8.37;56.61;99301.75;4044845;29;20029;-60
2022/04/08 05:45:14;;;;;;;17.42;3.88;;;;;;;8.33;56.81;99300.84;4027576;29;20076;-60
2022/04/08 05:47:17;;;;;;;15.85;2.33;;;;;;;8.32;56.37;99298.25;4034589;29;20047;-60
2022/04/08 05:49:21;;;;;;;9.07;2.15;;;;;;;8.41;56.36;99298.31;4033992;29;20049;-60
2022/04/08 05:51:24;;;;;;;11.07;2.35;;;;;;;8.41;56.51;99293.13;4026540;29;20432;-60
2022/04/08 05:53:42;;;;;;;16.83;2.33;;;;;;;8.38;56.65;99286.22;4026985;29;20104;-60
2022/04/08 05:55:45;;;;;;;11.02;2.35;;;;;;;8.43;56.33;99281.03;4027086;29;20041;-59
2022/04/08 05:57:48;;;;;;;13.10;2.35;;;;;;;8.44;57.20;99284.50;4044365;29;20048;-60
2022/04/08 05:59:51;;;;;;;12.90;2.10;;;;;;;8.53;56.65;99282.84;4027290;29;20049;-60
2022/04/08 06:01:54;;;;;;;9.23;1.98;;;;;;;8.58;56.56;99284.59;4036948;29;20036;-60
2022/04/08 06:03:58;;;;;;;11.60;2.30;;;;;;;8.60;56.57;99282.84;4037242;29;20094;-59
2022/04/08 06:06:02;;;;;;;8.07;2.33;;;;;;;8.60;56.62;99288.03;4037200;29;20384;-60
2022/04/08 06:08:06;;;;;;;16.42;2.50;;;;;;;8.64;56.77;99285.44;4034044;29;20485;-59
2022/04/08 06:10:09;;;;;;;16.45;2.45;;;;;;;8.70;56.50;99279.44;4026873;29;20140;-59
2022/04/08 06:12:12;;;;;;;10.88;2.50;;;;;;;8.63;56.74;99278.56;4039951;29;20406;-59
2022/04/08 06:14:15;;;;;;;11.05;2.78;;;;;;;8.64;56.41;99271.66;4028318;29;20086;-59
2022/04/08 06:16:23;;;;;;;11.90;2.40;;;;;;;8.56;56.35;99282.00;4039991;29;20496;-60
2022/04/08 06:18:27;;;;;;;7.57;2.13;;;;;;;8.54;56.69;99276.81;4029852;29;20045;-59
2022/04/08 06:20:30;;;;;;;13.73;2.85;;;;;;;8.52;56.73;99269.88;4028002;29;20077;-59
2022/04/08 06:22:34;;;;;;;15.43;2.90;;;;;;;8.63;56.43;99282.84;4047944;29;20047;-60
2022/04/08 06:24:37;;;;;;;12.95;2.67;;;;;;;8.59;56.73;99275.97;4040801;29;20041;-59
2022/04/08 06:26:40;;;;;;;12.70;2.63;;;;;;;8.56;56.48;99282.00;4043300;29;20463;-60
2022/04/08 06:28:43;;;;;;;12.85;2.50;;;;;;;8.56;56.51;99288.03;4047973;29;20495;-59
2022/04/08 06:30:46;;;;;;;11.10;2.35;;;;;;;8.53;56.84;99287.16;4042930;29;20076;-59
2022/04/08 06:32:49;;;;;;;15.10;2.53;;;;;;;8.63;56.50;99269.91;4036221;29;20045;-60
2022/04/08 06:34:52;;;;;;;17.20;2.67;;;;;;;8.65;56.63;99281.16;4035308;29;20408;-59
2022/04/08 06:36:54;;;;;;;6.57;1.98;;;;;;;8.63;56.81;99273.38;4036652;29;20055;-60
2022/04/08 06:38:59;;;;;;;11.30;2.95;;;;;;;8.64;56.28;99275.09;4042725;29;20036;-59
2022/04/08 06:41:01;;;;;;;6.72;2.28;;;;;;;8.57;57.05;99270.75;4038020;29;20039;-59
2022/04/08 06:43:05;;;;;;;15.10;2.63;;;;;;;8.68;56.77;99263.03;4017340;29;20049;-59
2022/04/08 06:45:09;;;;;;;9.43;2.72;;;;;;;8.64;56.91;99259.53;4025466;29;20041;-59
2022/04/08 06:47:14;;;;;;;15.60;2.42;;;;;;;8.80;56.86;99254.41;4033865;29;20338;-59
2022/04/08 06:49:19;;;;;;;9.95;2.45;;;;;;;8.79;57.13;99248.38;4031759;29;20380;-60
2022/04/08 06:51:22;;;;;;;10.98;2.40;;;;;;;8.87;56.91;99248.38;4029039;29;20060;-60
2022/04/08 06:53:25;;;;;;;11.85;2.45;;;;;;;8.86;56.48;99233.69;4029400;29;20136;-60
2022/04/08 06:55:30;;;;;;;11.73;2.30;;;;;;;8.93;56.75;99227.63;4032854;29;20045;-60
2022/04/08 06:57:33;;;;;;;13.80;2.67;;;;;;;9.00;57.07;99226.78;4029837;29;20419;-60
2022/04/08 06:59:36;;;;;;;10.43;2.70;;;;;;;9.16;56.58;99221.63;4035315;29;20060;-60
2022/04/08 07:01:39;;;;;;;12.75;2.63;;;;;;;9.22;56.78;99216.44;4033205;29;20060;-60
2022/04/08 07:03:42;;;;;;;14.57;2.60;;;;;;;9.29;56.93;99218.16;4028773;29;20037;-59
2022/04/08 07:05:45;;;;;;;13.38;2.67;;;;;;;9.39;57.23;99214.69;4030173;29;20056;-60
2022/04/08 07:07:48;;;;;;;15.70;3.38;;;;;;;9.47;56.87;99213.81;4029605;29;20065;-60
2022/04/08 07:09:52;;;;;;;11.05;2.60;;;;;;;9.52;56.77;99218.13;4029124;29;20089;-59
2022/04/08 07:11:57;;;;;;;8.45;2.38;;;;;;;9.61;57.53;99212.06;4034858;29;20049;-59
2022/04/08 07:14:00;;;;;;;8.77;2.20;;;;;;;9.65;56.89;99211.19;4031954;29;20041;-59
2022/04/08 07:16:03;;;;;;;8.82;1.45;;;;;;;9.63;56.97;99210.31;4030011;29;20061;-59
2022/04/08 07:18:06;;;;;;;7.63;1.98;;;;;;;9.62;57.35;99205.97;4034269;29;20452;-59
2022/04/08 07:20:13;;;;;;;9.05;2.17;;;;;;;9.64;57.35;99193.00;4034759;29;20049;-59
2022/04/08 07:22:16;;;;;;;7.22;1.95;;;;;;;9.70;56.32;99204.25;4027795;29;20491;-59
2022/04/08 07:24:20;;;;;;;7.28;1.90;;;;;;;9.75;56.19;99199.91;4023630;29;20136;-60
2022/04/08 07:26:22;;;;;;;8.45;2.25;;;;;;;9.77;56.17;99195.56;4028313;29;20065;-60
2022/04/08 07:28:27;;;;;;;12.45;2.92;;;;;;;9.74;55.40;99186.94;4030274;29;20049;-59
2022/04/08 07:30:30;;;;;;;6.40;1.90;;;;;;;9.66;55.98;99191.28;4029460;29;20128;-60
2022/04/08 07:32:33;;;;;;;9.98;2.30;;;;;;;9.58;55.98;99189.56;4033759;29;20037;-59
2022/04/08 07:34:36;;;;;;;6.57;1.85;;;;;;;9.51;56.06;99193.03;4029314;29;20040;-59
2022/04/08 07:36:40;;;;;;;10.02;2.00;;;;;;;9.58;56.56;99199.09;4041815;29;20047;-60
2022/04/08 07:38:42;;;;;;;8.45;1.65;;;;;;;9.48;56.67;99189.59;4025353;29;20041;-60
2022/04/08 07:40:45;;;;;;;8.52;3.15;;;;;;;9.54;56.96;99192.19;4028436;29;20060;-60
2022/04/08 07:42:48;;;;;;;7.57;2.85;;;;;;;9.60;56.91;99181.78;4031586;29;20041;-59
2022/04/08 07:44:53;;;;;;;8.52;2.00;;;;;;;9.50;56.57;99185.25;4029965;29;20133;-60
2022/04/08 07:46:56;;;;;;;;;;;;;;;9.36;57.72;99188.75;4033108;29;20069;-59
2022/04/08 07:48:59;;;;;;;7.35;1.77;;;;;;;9.48;57.81;99184.41;4029936;29;19931;-59
2022/04/08 07:51:01;;;;;;;11.93;2.17;;;;;;;9.59;58.02;99180.03;4032683;29;20048;-59
2022/04/08 07:53:05;;;;;;;7.88;2.42;;;;;;;9.67;58.69;99177.44;4032537;29;20076;-60
2022/04/08 07:55:10;;;;;;;7.00;2.13;;;;;;;9.65;56.77;99169.69;4045514;29;20043;-59
2022/04/08 07:57:13;;;;;;;6.97;1.65;;;;;;;9.49;56.46;99166.25;4024303;29;20052;-59
2022/04/08 07:59:17;;;;;;;11.27;1.98;;;;;;;9.52;56.72;99162.75;4029998;29;20060;-60
2022/04/08 08:01:22;;;;;;;9.85;2.15;;;;;;;9.43;56.16;99159.34;4029419;29;20049;-59
2022/04/08 08:03:25;;;;;;;9.20;2.78;;;;;;;9.46;56.44;99158.44;4024126;29;20067;-59
2022/04/08 08:05:29;;;;;;;8.18;2.47;;;;;;;9.44;56.85;99160.19;4030028;29;20040;-60
2022/04/08 08:07:32;;;;;;;6.63;2.08;;;;;;;9.33;56.37;99162.81;4018089;29;20621;-59
2022/04/08 08:09:35;;;;;;;7.03;1.80;;;;;;;9.28;56.39;99151.59;4030398;29;20044;-60
2022/04/08 08:11:55;;;;;;;9.88;2.05;;;;;;;9.30;56.39;99152.47;4029012;29;20046;-59
2022/04/08 08:13:58;;;;;;;8.05;2.65;;;;;;;9.33;56.21;99154.16;4033691;29;20041;-59
2022/04/08 08:16:01;;;;;;;7.65;1.80;;;;;;;9.25;57.01;99143.81;4043571;29;20455;-59
2022/04/08 08:18:07;;;;;;;9.50;2.58;;;;;;;9.20;56.65;99151.59;4041396;29;20067;-59
2022/04/08 08:20:12;;;;;;;10.25;2.72;;;;;;;9.27;57.19;99147.25;4046252;29;20092;-59
2022/04/08 08:22:15;;;;;;;7.30;2.20;;;;;;;9.26;56.87;99145.53;4025028;29;20442;-60
2022/04/08 08:24:18;;;;;;;8.63;2.10;;;;;;;9.31;56.56;99138.59;4027043;29;20322;-60
2022/04/08 08:26:21;;;;;;;11.07;2.15;;;;;;;9.28;56.66;99141.22;4026375;29;20064;-58
2022/04/08 08:28:24;;;;;;;16.75;3.15;;;;;;;9.25;56.58;99133.44;4035265;29;20048;-58
2022/04/08 08:30:29;;;;;;;8.80;2.70;;;;;;;9.30;56.35;99141.19;4027179;29;20511;-59
2022/04/08 08:32:32;;;;;;;9.32;2.60;;;;;;;9.37;57.02;99133.41;4029919;29;20044;-59
2022/04/08 08:34:36;;;;;;;8.32;2.22;;;;;;;9.60;57.05;99129.88;4030057;29;20037;-59
2022/04/08 08:36:39;;;;;;;6.13;2.08;;;;;;;9.66;56.25;99122.06;4031464;29;20072;-59
2022/04/08 08:38:41;;;;;;;13.65;2.47;;;;;;;9.51;55.73;99122.16;4025525;29;20043;-60
2022/04/08 08:40:45;;;;;;;12.95;2.25;;;;;;;9.59;56.61;99118.66;4014366;29;20054;-60
2022/04/08 08:42:49;;;;;;;8.10;2.00;;;;;;;9.70;56.02;99108.22;4029958;29;20560;-59
2022/04/08 08:44:52;;;;;;;9.93;2.22;;;;;;;9.73;56.48;99112.53;4025858;29;20046;-60
2022/04/08 08:46:58;;;;;;;8.27;2.00;;;;;;;9.79;56.79;99105.56;4025752;29;20120;-60
2022/04/08 08:49:03;;;;;;;12.18;2.83;;;;;;;9.88;56.51;99103.81;4027166;29;20043;-59
2022/04/08 08:51:08;;;;;;;9.00;2.00;;;;;;;9.93;56.88;99102.94;4030658;29;20045;-59
2022/04/08 08:53:11;;;;;;;7.93;1.90;;;;;;;9.84;56.87;99108.19;4030433;29;20053;-60
2022/04/08 08:55:14;;;;;;;11.30;2.35;;;;;;;9.99;58.00;99102.03;4025983;29;20037;-60
2022/04/08 08:57:18;;;;;;;8.85;2.20;;;;;;;10.02;57.48;99109.81;4027343;29;20049;-60
2022/04/08 08:59:21;;;;;;;8.00;2.17;;;;;;;9.82;59.45;99098.66;4028614;29;20041;-60
2022/04/08 09:01:24;;;;;;;8.90;2.60;;;;;;;9.76;59.18;99097.81;4027520;29;20033;-60
2022/04/08 09:03:29;;;;;;;7.18;2.35;;;;;;;9.88;59.81;99090.84;4030126;29;20041;-60
2022/04/08 09:05:40;;;;;;;5.70;1.60;;;;;;;9.86;60.42;99090.00;4037760;29;20410;-60
2022/04/08 09:07:53;;;;;;;8.82;1.77;;;;;;;9.70;61.33;99094.41;4034542;29;20049;-60
2022/04/08 09:09:58;;;;;;;6.03;2.20;;;;;;;9.70;61.83;99089.22;4035942;29;20147;-60
2022/04/08 09:12:13;;;;;;;8.23;1.98;;;;;;;9.61;62.82;99096.16;4033821;29;20041;-60
2022/04/08 09:14:26;;;;;;;8.73;1.98;;;;;;;9.54;63.05;99091.00;4036757;29;20177;-60
2022/04/08 09:16:29;;;;;;;7.95;1.75;;;;;;;9.23;63.73;99094.53;4033253;29;20041;-60
2022/04/08 09:18:37;;;;;;;5.18;1.40;;;;;;;9.17;63.75;99093.69;4028923;29;20041;-60
2022/04/08 09:20:42;;;;;;;5.95;1.48;;;;;;;9.06;64.59;99086.78;4037223;29;20045;-59
2022/04/08 09:22:53;;;;;;;;;;;;;;;9.07;65.29;99085.94;4034690;29;20036;-59
2022/04/08 09:25:05;;;;;;;16.80;4.78;;;;;;;8.95;66.15;99088.56;4028974;29;19931;-59
2022/04/08 09:27:09;;;;;;;5.97;1.52;;;;;;;8.65;66.72;99087.69;4025726;29;20298;-59
2022/04/08 09:29:12;;;;;;;8.60;1.98;;;;;;;8.62;67.15;99085.13;4029972;29;20124;-59
2022/04/08 09:31:19;;;;;;;7.15;2.00;;;;;;;8.58;68.10;99083.38;4030884;29;20053;-60
2022/04/08 09:33:23;;;;;;;;;;;;;;;8.49;68.73;99086.00;4025858;29;20053;-58
2022/04/08 09:35:26;;;;;;;7.10;1.85;;;;;;;8.60;68.74;99078.19;4026347;29;19931;-60
2022/04/08 09:37:29;;;;;;;4.22;1.55;;;;;;;8.59;68.25;99079.09;4026312;29;20064;-60
2022/04/08 09:39:34;;;;;;;7.63;1.55;;;;;;;8.55;68.64;99065.25;4031014;29;20073;-61
2022/04/08 09:41:38;;;;;;;11.57;2.10;;;;;;;8.62;69.22;99061.81;4014283;29;20049;-61
2022/04/08 09:43:41;;;;;;;6.82;2.58;;;;;;;8.66;69.35;99054.88;4028646;29;20037;-60
2022/04/08 09:45:46;;;;;;;5.53;1.90;;;;;;;8.71;69.49;99051.41;4029713;29;20041;-60
2022/04/08 09:47:48;;;;;;;6.78;2.13;;;;;;;8.61;70.03;99049.72;4030047;29;20037;-61